createdAt,value
2018-10-07T00:01:09.325Z,9.63
2018-10-07T00:03:37.884Z,10.80
2018-10-07T00:06:06.616Z,10.03
2018-10-07T00:08:35.202Z,10.00
2018-10-07T00:11:03.758Z,11.57
2018-10-07T00:13:32.201Z,10.07
2018-10-07T00:16:00.714Z,10.50
2018-10-07T00:18:29.224Z,10.60
2018-10-07T00:20:57.761Z,10.63
2018-10-07T00:23:26.256Z,11.47
2018-10-07T00:25:54.786Z,11.87
2018-10-07T00:28:23.282Z,11.50
2018-10-07T00:30:51.797Z,11.50
2018-10-07T00:33:20.370Z,13.43
2018-10-07T00:35:48.884Z,14.07
2018-10-07T00:38:17.345Z,14.63
2018-10-07T00:40:45.863Z,15.50
2018-10-07T00:43:14.266Z,21.83
2018-10-07T00:45:42.806Z,24.07
2018-10-07T00:48:11.278Z,25.30
2018-10-07T00:50:39.768Z,28.20
2018-10-07T00:53:08.245Z,27.23
2018-10-07T00:55:36.718Z,26.83
2018-10-07T00:58:05.292Z,28.80
2018-10-07T01:00:33.837Z,30.57
2018-10-07T01:03:02.375Z,33.53
2018-10-07T01:05:30.833Z,35.03
2018-10-07T01:07:59.384Z,37.30
2018-10-07T01:10:27.912Z,35.60
2018-10-07T01:12:56.515Z,41.03
2018-10-07T01:15:24.959Z,43.00
2018-10-07T01:17:53.469Z,40.40
2018-10-07T01:20:22.140Z,44.30
2018-10-07T01:22:50.736Z,46.53
2018-10-07T01:25:19.205Z,51.40
2018-10-07T01:27:47.672Z,50.20
2018-10-07T01:30:20.326Z,49.70
2018-10-07T01:32:48.829Z,56.27
2018-10-07T01:35:17.334Z,58.27
2018-10-07T01:37:45.817Z,59.53
2018-10-07T01:40:14.282Z,59.43
2018-10-07T01:42:42.798Z,61.70
2018-10-07T01:45:11.264Z,65.80
2018-10-07T01:47:39.860Z,63.53
2018-10-07T01:50:08.352Z,68.03
2018-10-07T01:52:37.000Z,69.43
2018-10-07T01:55:05.518Z,70.30
2018-10-07T01:57:33.956Z,73.20
2018-10-07T02:00:02.450Z,69.20
2018-10-07T02:02:30.954Z,70.07
2018-10-07T02:04:59.459Z,72.87
2018-10-07T02:07:27.987Z,71.77
2018-10-07T02:09:56.469Z,70.17
2018-10-07T02:12:24.994Z,72.10
2018-10-07T02:14:53.434Z,69.03
2018-10-07T02:17:21.925Z,68.97
2018-10-07T02:19:50.445Z,68.50
2018-10-07T02:22:18.881Z,66.83
2018-10-07T02:24:47.368Z,69.27
2018-10-07T02:27:15.877Z,66.67
2018-10-07T02:29:44.346Z,66.17
2018-10-07T02:32:12.793Z,63.63
2018-10-07T02:34:41.316Z,66.57
2018-10-07T02:37:09.787Z,67.10
2018-10-07T02:39:38.265Z,69.03
2018-10-07T02:42:07.119Z,67.60
2018-10-07T02:44:35.632Z,68.83
2018-10-07T02:47:04.157Z,68.30
2018-10-07T02:49:32.645Z,67.90
2018-10-07T02:52:01.149Z,71.33
2018-10-07T02:54:29.759Z,70.47
2018-10-07T02:56:58.257Z,73.60
2018-10-07T02:59:27.160Z,72.20
2018-10-07T03:01:55.632Z,73.70
2018-10-07T03:04:24.157Z,76.50
2018-10-07T03:06:52.617Z,70.57
2018-10-07T03:09:21.049Z,73.10
2018-10-07T03:11:49.547Z,70.13
2018-10-07T03:14:18.023Z,74.20
2018-10-07T03:16:46.517Z,73.60
2018-10-07T03:19:14.987Z,74.80
2018-10-07T03:21:43.468Z,73.77
2018-10-07T03:24:11.983Z,75.10
2018-10-07T03:26:40.496Z,78.87
2018-10-07T03:29:09.017Z,76.10
2018-10-07T03:31:37.512Z,78.20
2018-10-07T03:34:06.012Z,76.57
2018-10-07T03:36:34.443Z,82.67
2018-10-07T03:39:05.705Z,79.10
2018-10-07T03:41:34.175Z,79.77
2018-10-07T03:44:02.705Z,81.67
2018-10-07T03:46:31.139Z,76.83
2018-10-07T03:48:59.749Z,76.30
2018-10-07T03:51:28.230Z,76.13
2018-10-07T03:53:56.737Z,74.83
2018-10-07T03:56:25.206Z,76.20
2018-10-07T03:58:53.685Z,74.53
2018-10-07T04:01:22.208Z,71.57
2018-10-07T04:03:50.749Z,71.60
2018-10-07T04:06:19.232Z,69.47
2018-10-07T04:08:47.748Z,68.40
2018-10-07T04:11:16.300Z,71.00
2018-10-07T04:13:44.753Z,73.50
2018-10-07T04:16:13.233Z,70.97
2018-10-07T04:18:41.724Z,70.87
2018-10-07T04:21:10.213Z,69.13
2018-10-07T04:23:38.679Z,70.60
2018-10-07T04:26:07.456Z,66.40
2018-10-07T04:28:35.974Z,67.20
2018-10-07T04:31:04.466Z,72.23
2018-10-07T04:33:32.917Z,65.00
2018-10-07T04:36:01.392Z,69.17
2018-10-07T04:38:29.901Z,66.87
2018-10-07T04:40:58.356Z,63.80
2018-10-07T04:43:26.857Z,66.77
2018-10-07T04:45:55.365Z,66.00
2018-10-07T04:48:23.933Z,67.47
2018-10-07T04:50:52.392Z,66.47
2018-10-07T04:53:20.887Z,67.57
2018-10-07T04:55:49.381Z,64.33
2018-10-07T04:58:17.916Z,65.30
2018-10-07T05:00:46.422Z,64.90
2018-10-07T05:03:15.136Z,63.97
2018-10-07T05:05:43.684Z,63.90
2018-10-07T05:08:12.272Z,63.60
2018-10-07T05:10:45.808Z,61.37
2018-10-07T05:13:17.351Z,47.37
2018-10-07T05:15:47.144Z,43.50
2018-10-07T05:18:15.648Z,36.80
2018-10-07T05:20:44.143Z,35.23
2018-10-07T05:23:12.600Z,34.27
2018-10-07T05:25:41.079Z,32.20
2018-10-07T05:28:09.587Z,30.03
2018-10-07T05:30:38.345Z,27.00
2018-10-07T05:33:06.882Z,26.30
2018-10-07T05:35:35.409Z,25.33
2018-10-07T05:38:03.924Z,23.43
2018-10-07T05:40:32.426Z,22.23
2018-10-07T05:43:00.958Z,19.30
2018-10-07T05:45:29.431Z,19.20
2018-10-07T05:47:57.927Z,18.03
2018-10-07T05:50:26.396Z,16.27
2018-10-07T05:52:55.283Z,16.13
2018-10-07T05:55:23.948Z,15.93
2018-10-07T05:57:55.553Z,16.63
2018-10-07T06:00:24.220Z,16.13
2018-10-07T06:02:54.265Z,13.50
2018-10-07T06:05:22.837Z,13.40
2018-10-07T06:07:51.587Z,13.60
2018-10-07T06:10:20.178Z,12.10
2018-10-07T06:12:48.709Z,11.13
2018-10-07T06:15:35.306Z,11.90
2018-10-07T06:18:03.844Z,10.13
2018-10-07T06:20:33.361Z,11.73
2018-10-07T06:23:02.002Z,10.53
2018-10-07T06:25:30.530Z,11.10
2018-10-07T06:27:59.076Z,11.77
2018-10-07T06:30:27.730Z,10.23
2018-10-07T06:32:56.225Z,10.63
2018-10-07T06:35:25.518Z,10.53
2018-10-07T06:37:54.713Z,10.00
2018-10-07T06:40:23.454Z,9.50
2018-10-07T06:42:51.945Z,11.00
2018-10-07T06:45:20.500Z,10.00
2018-10-07T06:47:49.077Z,9.90
2018-10-07T06:50:17.552Z,10.33
2018-10-07T06:52:46.047Z,13.00
2018-10-07T06:55:14.609Z,13.27
2018-10-07T06:57:43.109Z,15.87
2018-10-07T07:00:11.657Z,14.73
2018-10-07T07:02:40.185Z,14.63
2018-10-07T07:05:08.738Z,14.63
2018-10-07T07:07:37.301Z,15.73
2018-10-07T07:10:05.803Z,15.90
2018-10-07T07:12:34.276Z,16.70
2018-10-07T07:15:02.825Z,15.57
2018-10-07T07:17:31.389Z,17.20
2018-10-07T07:19:59.978Z,17.70
2018-10-07T07:22:28.434Z,15.17
2018-10-07T07:24:56.938Z,13.83
2018-10-07T07:27:25.514Z,14.50
2018-10-07T07:29:54.052Z,13.90
2018-10-07T07:32:22.580Z,14.33
2018-10-07T07:34:51.146Z,14.87
2018-10-07T07:37:19.598Z,14.90
2018-10-07T07:39:48.112Z,16.77
2018-10-07T07:42:16.655Z,14.80
2018-10-07T07:44:45.144Z,15.20
2018-10-07T07:47:13.644Z,15.77
2018-10-07T07:49:42.094Z,14.20
2018-10-07T07:52:10.609Z,12.60
2018-10-07T07:54:39.070Z,14.20
2018-10-07T07:57:07.653Z,11.23
2018-10-07T07:59:36.117Z,12.93
2018-10-07T08:02:04.621Z,11.43
2018-10-07T08:04:33.118Z,10.67
2018-10-07T08:07:01.653Z,11.30
2018-10-07T08:09:30.154Z,12.27
2018-10-07T08:11:58.864Z,12.50
2018-10-07T08:14:27.343Z,13.40
2018-10-07T08:16:55.804Z,14.47
2018-10-07T08:19:24.627Z,12.73
2018-10-07T08:21:53.073Z,12.60
2018-10-07T08:24:21.608Z,12.93
2018-10-07T08:26:50.241Z,13.90
2018-10-07T08:29:18.747Z,12.90
2018-10-07T08:31:47.208Z,14.10
2018-10-07T08:34:15.693Z,13.17
2018-10-07T08:36:44.159Z,13.17
2018-10-07T08:39:12.670Z,10.17
2018-10-07T08:41:41.161Z,12.27
2018-10-07T08:44:09.719Z,10.93
2018-10-07T08:46:38.186Z,10.90
2018-10-07T08:49:06.712Z,10.03
2018-10-07T08:51:35.243Z,10.13
2018-10-07T08:54:04.771Z,9.97
2018-10-07T08:56:33.423Z,9.30
2018-10-07T08:59:01.969Z,8.00
2018-10-07T09:01:30.481Z,5.27
2018-10-07T09:03:58.987Z,4.73
2018-10-07T09:06:27.616Z,3.60
2018-10-07T09:08:56.194Z,3.33
2018-10-07T09:11:24.919Z,3.70
2018-10-07T09:13:53.457Z,4.00
2018-10-07T09:16:21.935Z,3.20
2018-10-07T09:18:50.414Z,3.00
2018-10-07T09:21:18.899Z,4.00
2018-10-07T09:23:47.368Z,2.07
2018-10-07T09:26:15.873Z,2.37
2018-10-07T09:28:44.401Z,2.20
2018-10-07T09:31:12.962Z,1.90
2018-10-07T09:33:41.406Z,3.43
2018-10-07T09:36:09.943Z,2.47
2018-10-07T09:38:38.465Z,2.50
2018-10-07T09:41:06.989Z,2.57
2018-10-07T09:43:35.552Z,3.10
2018-10-07T09:46:04.071Z,3.90
2018-10-07T09:48:33.009Z,2.40
2018-10-07T09:51:01.512Z,2.03
2018-10-07T09:53:29.988Z,2.40
2018-10-07T09:55:58.497Z,3.07
2018-10-07T09:58:26.965Z,2.40
2018-10-07T10:00:55.420Z,3.00
2018-10-07T10:03:23.933Z,2.80
2018-10-07T10:05:52.439Z,2.50
2018-10-07T10:08:20.968Z,4.23
2018-10-07T10:10:49.506Z,2.83
2018-10-07T10:13:18.028Z,2.50
2018-10-07T10:15:46.545Z,2.70
2018-10-07T10:18:34.709Z,3.40
2018-10-07T10:22:08.900Z,2.60
2018-10-07T10:25:02.458Z,3.50
2018-10-07T10:27:42.042Z,2.50
2018-10-07T10:30:48.485Z,2.57
2018-10-07T10:33:27.647Z,2.80
2018-10-07T10:36:03.182Z,3.00
2018-10-07T10:38:39.053Z,2.63
2018-10-07T10:41:14.121Z,2.60
2018-10-07T10:43:54.396Z,2.40
2018-10-07T10:46:30.681Z,2.60
2018-10-07T10:49:11.145Z,3.27
2018-10-07T10:51:44.243Z,3.40
2018-10-07T10:54:18.796Z,3.63
2018-10-07T10:56:54.217Z,3.23
2018-10-07T10:59:30.796Z,3.97
2018-10-07T11:03:34.290Z,2.80
2018-10-07T11:06:10.486Z,2.57
2018-10-07T11:08:54.701Z,2.80
2018-10-07T11:11:27.251Z,2.57
2018-10-07T11:14:09.031Z,2.90
2018-10-07T11:18:55.887Z,5.80
2018-10-07T11:21:52.101Z,2.50
2018-10-07T11:24:25.719Z,3.30
2018-10-07T11:27:02.123Z,2.27
2018-10-07T11:29:41.044Z,2.53
2018-10-07T11:32:19.654Z,2.27
2018-10-07T11:35:08.202Z,4.10
2018-10-07T11:37:45.033Z,1.80
2018-10-07T11:40:24.850Z,2.17
2018-10-07T11:44:06.322Z,2.40
2018-10-07T11:48:50.462Z,1.47
2018-10-07T11:52:05.064Z,2.20
2018-10-07T11:55:00.221Z,1.23
2018-10-07T11:57:29.040Z,1.10
2018-10-07T11:59:58.198Z,0.90
2018-10-07T12:02:26.952Z,0.70
2018-10-07T12:04:55.545Z,0.90
2018-10-07T12:07:24.753Z,0.90
2018-10-07T12:09:53.626Z,1.30
2018-10-07T12:12:22.154Z,0.93
2018-10-07T12:14:50.648Z,22.40
2018-10-07T12:17:19.056Z,1.23
2018-10-07T12:19:48.211Z,2.27
2018-10-07T12:22:16.725Z,1.10
2018-10-07T12:24:45.232Z,0.80
2018-10-07T12:27:13.741Z,1.10
2018-10-07T12:29:42.182Z,1.80
2018-10-07T12:32:11.263Z,3.37
2018-10-07T12:34:39.736Z,3.50
2018-10-07T12:37:08.289Z,5.00
2018-10-07T12:39:37.002Z,1.63
2018-10-07T12:42:05.488Z,0.70
2018-10-07T12:44:33.943Z,1.23
2018-10-07T12:47:02.529Z,1.20
2018-10-07T12:49:31.013Z,1.30
2018-10-07T12:51:59.514Z,1.77
2018-10-07T12:54:28.495Z,1.73
2018-10-07T12:56:57.416Z,1.30
2018-10-07T12:59:26.042Z,1.80
2018-10-07T13:01:54.575Z,1.10
2018-10-07T13:04:23.064Z,1.00
2018-10-07T13:06:51.852Z,1.33
2018-10-07T13:09:20.363Z,0.80
2018-10-07T13:11:48.889Z,1.10
2018-10-07T13:14:17.540Z,3.10
2018-10-07T13:16:46.090Z,1.40
2018-10-07T13:19:14.700Z,1.00
2018-10-07T13:21:43.225Z,0.97
2018-10-07T13:24:11.703Z,2.00
2018-10-07T13:26:40.229Z,4.10
2018-10-07T13:29:08.769Z,3.10
2018-10-07T13:31:37.325Z,3.23
2018-10-07T13:34:05.910Z,1.30
2018-10-07T13:36:34.407Z,1.27
2018-10-07T13:39:05.017Z,0.90
2018-10-07T13:41:33.590Z,2.10
2018-10-07T13:44:02.116Z,1.10
2018-10-07T13:46:30.695Z,1.30
2018-10-07T13:49:00.382Z,1.00
2018-10-07T13:51:29.259Z,1.03
2018-10-07T13:53:57.956Z,1.33
2018-10-07T13:56:26.534Z,0.97
2018-10-07T13:58:55.036Z,0.90
2018-10-07T14:01:24.394Z,0.93
2018-10-07T14:03:52.893Z,0.63
2018-10-07T14:06:21.538Z,2.23
2018-10-07T14:08:50.032Z,2.73
2018-10-07T14:11:18.736Z,15.67
2018-10-07T14:13:47.223Z,1.20
2018-10-07T14:16:16.010Z,0.93
2018-10-07T14:18:44.446Z,0.70
2018-10-07T14:21:14.567Z,0.80
2018-10-07T14:23:43.111Z,1.13
2018-10-07T14:26:12.032Z,0.70
2018-10-07T14:28:40.634Z,2.43
2018-10-07T14:31:09.199Z,2.17
2018-10-07T14:33:37.777Z,1.60
2018-10-07T14:36:06.699Z,5.60
2018-10-07T14:38:35.436Z,2.90
2018-10-07T14:41:04.070Z,3.37
2018-10-07T14:43:32.984Z,4.37
2018-10-07T14:46:03.206Z,0.80
2018-10-07T14:48:32.085Z,1.33
2018-10-07T14:51:00.872Z,1.03
2018-10-07T14:53:30.534Z,1.00
2018-10-07T14:55:59.143Z,0.70
2018-10-07T14:58:29.018Z,1.23
2018-10-07T15:00:57.566Z,2.20
2018-10-07T15:03:26.057Z,1.00
2018-10-07T15:05:54.503Z,0.60
2018-10-07T15:08:23.293Z,1.10
2018-10-07T15:10:51.840Z,4.13
2018-10-07T15:13:20.433Z,22.47
2018-10-07T15:15:49.042Z,6.93
2018-10-07T15:18:17.861Z,5.50
2018-10-07T15:20:46.485Z,1.63
2018-10-07T15:23:15.049Z,1.77
2018-10-07T15:25:43.532Z,1.03
2018-10-07T15:28:12.033Z,3.27
2018-10-07T15:30:40.579Z,4.77
2018-10-07T15:33:09.057Z,6.10
2018-10-07T15:35:37.572Z,5.20
2018-10-07T15:38:06.139Z,8.47
2018-10-07T15:40:34.743Z,8.63
2018-10-07T15:44:06.620Z,6.83
2018-10-07T15:46:35.196Z,7.83
2018-10-07T15:49:03.737Z,16.17
2018-10-07T15:51:32.236Z,9.03
2018-10-07T15:54:00.684Z,10.03
2018-10-07T15:56:29.292Z,3.50
2018-10-07T15:58:57.783Z,3.77
2018-10-07T16:01:26.241Z,3.00
2018-10-07T16:03:54.702Z,6.27
2018-10-07T16:06:23.238Z,7.53
2018-10-07T16:08:51.770Z,9.93
2018-10-07T16:11:20.157Z,6.03
2018-10-07T16:13:48.784Z,7.03
2018-10-07T16:16:17.362Z,6.90
2018-10-07T16:18:45.829Z,4.27
2018-10-07T16:21:14.352Z,10.63
2018-10-07T16:23:42.938Z,7.70
2018-10-07T16:26:11.585Z,1.30
2018-10-07T16:28:39.933Z,2.50
2018-10-07T16:31:08.471Z,10.43
2018-10-07T16:33:36.969Z,11.53
2018-10-07T16:36:06.196Z,11.60
2018-10-07T16:38:34.708Z,9.00
2018-10-07T16:41:03.166Z,11.30
2018-10-07T16:43:33.023Z,16.90
2018-10-07T16:46:01.892Z,12.40
2018-10-07T16:48:30.420Z,8.57
2018-10-07T16:50:59.245Z,5.67
2018-10-07T16:53:27.784Z,13.07
2018-10-07T16:55:56.375Z,21.83
2018-10-07T16:58:24.925Z,37.13
2018-10-07T17:00:53.447Z,48.17
2018-10-07T17:03:22.011Z,23.73
2018-10-07T17:05:50.462Z,28.03
2018-10-07T17:08:18.966Z,21.30
2018-10-07T17:10:47.435Z,15.53
2018-10-07T17:13:16.139Z,12.10
2018-10-07T17:15:44.715Z,11.27
2018-10-07T17:18:13.295Z,10.20
2018-10-07T17:20:50.906Z,11.13
2018-10-07T17:23:20.505Z,10.20
2018-10-07T17:25:50.329Z,10.27
2018-10-07T17:28:19.220Z,7.40
2018-10-07T17:30:47.714Z,4.40
2018-10-07T17:33:16.262Z,4.47
2018-10-07T17:35:44.704Z,2.90
2018-10-07T17:38:13.255Z,3.00
2018-10-07T17:40:41.683Z,2.60
2018-10-07T17:43:10.197Z,2.80
2018-10-07T17:45:38.638Z,2.83
2018-10-07T17:48:07.601Z,7.87
2018-10-07T17:50:36.437Z,1.43
2018-10-07T17:53:05.141Z,2.87
2018-10-07T17:55:33.676Z,2.60
2018-10-07T17:58:02.161Z,2.33
2018-10-07T18:00:30.821Z,5.27
2018-10-07T18:02:59.437Z,8.97
2018-10-07T18:05:28.117Z,10.43
2018-10-07T18:07:56.935Z,7.77
2018-10-07T18:10:27.965Z,10.57
2018-10-07T18:12:56.544Z,13.90
2018-10-07T18:15:25.233Z,17.67
2018-10-07T18:17:53.764Z,12.67
2018-10-07T18:20:22.969Z,11.47
2018-10-07T18:22:51.636Z,8.10
2018-10-07T18:25:20.213Z,12.70
2018-10-07T18:27:48.730Z,14.30
2018-10-07T18:30:17.317Z,8.40
2018-10-07T18:32:45.932Z,11.22
2018-10-07T18:35:14.595Z,10.43
2018-10-07T18:37:43.149Z,11.67
2018-10-07T18:40:11.763Z,14.33
2018-10-07T18:42:40.290Z,11.33
2018-10-07T18:45:08.805Z,6.80
2018-10-07T18:47:37.263Z,7.90
2018-10-07T18:50:05.884Z,7.70
2018-10-07T18:52:34.463Z,7.28
2018-10-07T18:55:03.029Z,10.63
2018-10-07T18:57:31.504Z,10.77
2018-10-07T18:59:59.925Z,6.73
2018-10-07T19:02:28.492Z,5.77
2018-10-07T19:04:57.037Z,13.40
2018-10-07T19:07:25.513Z,17.50
2018-10-07T19:09:54.085Z,17.60
2018-10-07T19:12:22.604Z,8.93
2018-10-07T19:14:51.232Z,16.90
2018-10-07T19:17:19.781Z,10.10
2018-10-07T19:19:48.247Z,13.93
2018-10-07T19:22:17.060Z,7.97
2018-10-07T19:24:45.497Z,3.50
2018-10-07T19:27:14.000Z,3.33
2018-10-07T19:29:42.600Z,2.10
2018-10-07T19:32:11.073Z,3.40
2018-10-07T19:34:39.517Z,4.87
2018-10-07T19:38:11.120Z,4.60
2018-10-07T19:40:39.649Z,6.10
2018-10-07T19:43:09.816Z,6.70
2018-10-07T19:45:38.348Z,6.23
2018-10-07T19:48:06.901Z,8.00
2018-10-07T19:50:35.360Z,9.20
2018-10-07T19:53:03.844Z,7.10
2018-10-07T19:55:32.296Z,8.23
2018-10-07T19:58:00.792Z,6.97
2018-10-07T20:00:29.294Z,6.50
2018-10-07T20:04:22.195Z,6.87
2018-10-07T20:06:50.928Z,3.70
2018-10-07T20:09:19.469Z,1.80
2018-10-07T20:11:48.015Z,2.60
2018-10-07T20:14:16.441Z,2.80
2018-10-07T20:16:44.950Z,2.40
2018-10-07T20:19:13.518Z,1.30
2018-10-07T20:21:42.090Z,2.17
2018-10-07T20:24:10.684Z,2.27
2018-10-07T20:26:39.220Z,6.27
2018-10-07T20:29:07.704Z,7.37
2018-10-07T20:31:36.674Z,6.27
2018-10-07T20:34:05.181Z,4.33
2018-10-07T20:36:33.605Z,3.00
2018-10-07T20:39:02.122Z,1.87
2018-10-07T20:41:30.563Z,2.63
2018-10-07T20:43:59.069Z,1.97
2018-10-07T20:46:27.524Z,1.60
2018-10-07T20:48:56.093Z,2.30
2018-10-07T20:51:24.590Z,1.80
2018-10-07T20:53:53.074Z,2.80
2018-10-07T20:56:21.769Z,9.43
2018-10-07T20:58:50.549Z,2.50
2018-10-07T21:01:19.642Z,1.83
2018-10-07T21:03:48.172Z,2.13
2018-10-07T21:06:17.322Z,1.90
2018-10-07T21:08:45.808Z,1.87
2018-10-07T21:11:14.482Z,1.77
2018-10-07T21:13:43.028Z,1.57
2018-10-07T21:16:11.757Z,1.30
2018-10-07T21:18:40.245Z,1.70
2018-10-07T21:21:08.799Z,1.13
2018-10-07T21:23:37.665Z,1.30
2018-10-07T21:26:06.509Z,1.20
2018-10-07T21:28:35.312Z,1.10
2018-10-07T21:31:03.889Z,1.90
2018-10-07T21:33:32.546Z,1.70
2018-10-07T21:36:01.069Z,1.30
2018-10-07T21:38:29.541Z,2.10
2018-10-07T21:40:58.013Z,2.07
2018-10-07T21:43:26.499Z,2.00
2018-10-07T21:45:55.010Z,2.60
2018-10-07T21:48:23.504Z,2.87
2018-10-07T21:50:51.929Z,2.77
2018-10-07T21:53:20.467Z,2.70
2018-10-07T21:55:48.913Z,2.37
2018-10-07T21:58:17.475Z,3.30
2018-10-07T22:00:45.976Z,2.33
2018-10-07T22:03:14.491Z,2.93
2018-10-07T22:05:42.936Z,2.80
2018-10-07T22:08:11.420Z,2.97
2018-10-07T22:10:39.909Z,2.60
2018-10-07T22:13:08.477Z,2.97
2018-10-07T22:15:36.981Z,2.80
2018-10-07T22:18:05.482Z,2.77
2018-10-07T22:20:33.978Z,3.03
2018-10-07T22:23:02.405Z,2.80
2018-10-07T22:25:30.925Z,2.77
2018-10-07T22:27:59.368Z,2.70
2018-10-07T22:30:28.885Z,2.67
2018-10-07T22:32:57.353Z,3.10
2018-10-07T22:35:25.841Z,4.13
2018-10-07T22:37:54.312Z,3.90
2018-10-07T22:40:22.837Z,3.80
2018-10-07T22:42:51.296Z,3.17
2018-10-07T22:45:19.954Z,3.30
2018-10-07T22:47:48.450Z,3.23
2018-10-07T22:50:16.951Z,4.13
2018-10-07T22:52:45.412Z,3.93
2018-10-07T22:55:14.292Z,2.97
2018-10-07T22:57:42.801Z,2.83
2018-10-07T23:00:11.466Z,3.13
2018-10-07T23:02:39.951Z,3.30
2018-10-07T23:05:08.505Z,3.43
2018-10-07T23:14:36.181Z,2.60
2018-10-07T23:17:04.612Z,1.87
2018-10-07T23:19:33.117Z,1.67
2018-10-07T23:22:01.604Z,1.97
2018-10-07T23:24:30.140Z,2.20
2018-10-07T23:26:58.565Z,2.43
2018-10-07T23:29:27.057Z,1.47
2018-10-07T23:31:55.506Z,1.67
2018-10-07T23:34:24.018Z,1.47
2018-10-07T23:36:52.493Z,1.13
2018-10-07T23:39:20.994Z,1.63
2018-10-07T23:41:50.153Z,1.77
2018-10-07T23:44:18.681Z,1.80
2018-10-07T23:46:47.152Z,1.50
2018-10-07T23:49:15.619Z,1.93
2018-10-07T23:51:44.229Z,1.80
2018-10-07T23:54:12.576Z,2.13
2018-10-07T23:56:42.108Z,1.90
2018-10-07T23:59:10.577Z,2.07
